Los Ojos, New Mexico
Current Conditions -  °F | °C
As of 10:35 AM on Saturday 25 Oct 2014 (Local Time) from KPSO Reporting Station
Clear Clear  
Wind Chill: 60°   Ceiling: Unl
Heat Index: 60°   Visibility: 10mi
Dew Point: 35°   Wind: 0mph
Humidity: 40%   Direction: NA
Pressure: 30.43"   Gusts: NA
Location:  36.75°N, 106.56°W
Report Text: KPSO 251635Z AUTO 00000KT 10SM CLR 15/02 A3043 RMK AO2 T01540017
Loading
Personal Weather Stations






























Interactive Weather Map
Tropical Storm Tracking
New forecast layout! Learn more

10-Day Weather Forecast

Advertisements
Track Severe Weather on mobile